sensor_id;sensor_type;location;lat;lon;timestamp;P1;durP1;ratioP1;P2;durP2;ratioP2
2992;SDS011;1506;48.932;9.478;2022-12-13T00:01:21;32.80;;;18.53;;
2992;SDS011;1506;48.932;9.478;2022-12-13T00:03:53;41.60;;;17.07;;
2992;SDS011;1506;48.932;9.478;2022-12-13T00:06:23;39.27;;;17.77;;
2992;SDS011;1506;48.932;9.478;2022-12-13T00:08:51;48.83;;;18.20;;
2992;SDS011;1506;48.932;9.478;2022-12-13T00:11:18;32.10;;;16.17;;
2992;SDS011;1506;48.932;9.478;2022-12-13T00:13:46;36.67;;;17.43;;
2992;SDS011;1506;48.932;9.478;2022-12-13T00:16:14;38.17;;;17.57;;
2992;SDS011;1506;48.932;9.478;2022-12-13T00:18:47;29.10;;;13.57;;
2992;SDS011;1506;48.932;9.478;2022-12-13T00:21:17;38.03;;;16.17;;
2992;SDS011;1506;48.932;9.478;2022-12-13T00:23:45;40.67;;;18.10;;
2992;SDS011;1506;48.932;9.478;2022-12-13T00:26:14;33.30;;;15.80;;
2992;SDS011;1506;48.932;9.478;2022-12-13T00:28:44;45.60;;;17.10;;
2992;SDS011;1506;48.932;9.478;2022-12-13T00:31:14;54.10;;;20.77;;
2992;SDS011;1506;48.932;9.478;2022-12-13T00:34:02;46.90;;;17.30;;
2992;SDS011;1506;48.932;9.478;2022-12-13T00:36:30;34.47;;;16.17;;
2992;SDS011;1506;48.932;9.478;2022-12-13T00:38:57;37.67;;;16.83;;
2992;SDS011;1506;48.932;9.478;2022-12-13T00:41:28;35.73;;;16.13;;
2992;SDS011;1506;48.932;9.478;2022-12-13T00:43:57;45.97;;;18.23;;
2992;SDS011;1506;48.932;9.478;2022-12-13T00:46:25;55.07;;;20.27;;
2992;SDS011;1506;48.932;9.478;2022-12-13T00:48:54;39.00;;;16.27;;
2992;SDS011;1506;48.932;9.478;2022-12-13T00:51:23;58.70;;;19.27;;
2992;SDS011;1506;48.932;9.478;2022-12-13T00:53:51;40.43;;;18.73;;
2992;SDS011;1506;48.932;9.478;2022-12-13T00:56:20;42.00;;;18.43;;
2992;SDS011;1506;48.932;9.478;2022-12-13T00:58:48;62.23;;;20.50;;
2992;SDS011;1506;48.932;9.478;2022-12-13T01:01:18;54.90;;;18.77;;
2992;SDS011;1506;48.932;9.478;2022-12-13T01:03:54;41.87;;;18.33;;
2992;SDS011;1506;48.932;9.478;2022-12-13T01:06:42;45.47;;;17.83;;
2992;SDS011;1506;48.932;9.478;2022-12-13T01:09:15;51.80;;;20.17;;
2992;SDS011;1506;48.932;9.478;2022-12-13T01:11:44;42.60;;;17.80;;
2992;SDS011;1506;48.932;9.478;2022-12-13T01:14:12;48.97;;;19.80;;
2992;SDS011;1506;48.932;9.478;2022-12-13T01:16:40;50.70;;;21.13;;
2992;SDS011;1506;48.932;9.478;2022-12-13T01:19:07;41.67;;;17.70;;
2992;SDS011;1506;48.932;9.478;2022-12-13T01:21:34;36.63;;;19.67;;
2992;SDS011;1506;48.932;9.478;2022-12-13T01:24:02;52.97;;;20.97;;
2992;SDS011;1506;48.932;9.478;2022-12-13T01:26:31;49.80;;;19.13;;
2992;SDS011;1506;48.932;9.478;2022-12-13T01:28:59;42.23;;;15.63;;
2992;SDS011;1506;48.932;9.478;2022-12-13T01:31:27;43.23;;;17.03;;
2992;SDS011;1506;48.932;9.478;2022-12-13T01:33:54;34.80;;;16.20;;
2992;SDS011;1506;48.932;9.478;2022-12-13T01:36:22;34.80;;;18.10;;
2992;SDS011;1506;48.932;9.478;2022-12-13T01:38:54;50.50;;;21.67;;
2992;SDS011;1506;48.932;9.478;2022-12-13T01:41:24;38.13;;;17.33;;
2992;SDS011;1506;48.932;9.478;2022-12-13T01:43:57;42.97;;;16.90;;
2992;SDS011;1506;48.932;9.478;2022-12-13T01:46:29;38.00;;;16.37;;
2992;SDS011;1506;48.932;9.478;2022-12-13T01:54:24;35.10;;;15.20;;
2992;SDS011;1506;48.932;9.478;2022-12-13T01:56:59;37.90;;;15.40;;
2992;SDS011;1506;48.932;9.478;2022-12-13T01:59:29;38.77;;;17.20;;
2992;SDS011;1506;48.932;9.478;2022-12-13T02:01:56;37.40;;;16.30;;
2992;SDS011;1506;48.932;9.478;2022-12-13T02:04:30;37.40;;;16.90;;
2992;SDS011;1506;48.932;9.478;2022-12-13T02:07:21;33.17;;;15.80;;
2992;SDS011;1506;48.932;9.478;2022-12-13T02:09:52;38.23;;;16.60;;
2992;SDS011;1506;48.932;9.478;2022-12-13T02:12:27;34.33;;;15.30;;
2992;SDS011;1506;48.932;9.478;2022-12-13T02:15:00;37.37;;;14.43;;
2992;SDS011;1506;48.932;9.478;2022-12-13T02:31:28;39.93;;;16.67;;
2992;SDS011;1506;48.932;9.478;2022-12-13T02:34:47;27.60;;;15.43;;
2992;SDS011;1506;48.932;9.478;2022-12-13T02:39:36;43.13;;;19.83;;
2992;SDS011;1506;48.932;9.478;2022-12-13T02:42:11;48.60;;;19.03;;
2992;SDS011;1506;48.932;9.478;2022-12-13T02:45:07;39.07;;;17.93;;
2992;SDS011;1506;48.932;9.478;2022-12-13T02:47:46;43.67;;;17.63;;
2992;SDS011;1506;48.932;9.478;2022-12-13T02:50:17;40.07;;;18.03;;
2992;SDS011;1506;48.932;9.478;2022-12-13T02:52:45;41.20;;;17.13;;
2992;SDS011;1506;48.932;9.478;2022-12-13T02:55:13;37.17;;;16.23;;
2992;SDS011;1506;48.932;9.478;2022-12-13T02:57:42;42.80;;;17.80;;
2992;SDS011;1506;48.932;9.478;2022-12-13T03:00:12;37.03;;;17.67;;
2992;SDS011;1506;48.932;9.478;2022-12-13T03:16:14;43.47;;;20.13;;
2992;SDS011;1506;48.932;9.478;2022-12-13T03:18:49;36.33;;;17.60;;
2992;SDS011;1506;48.932;9.478;2022-12-13T03:21:20;52.40;;;19.73;;
2992;SDS011;1506;48.932;9.478;2022-12-13T03:23:48;53.87;;;20.60;;
2992;SDS011;1506;48.932;9.478;2022-12-13T03:26:16;40.80;;;18.93;;
2992;SDS011;1506;48.932;9.478;2022-12-13T03:28:51;48.33;;;19.90;;
2992;SDS011;1506;48.932;9.478;2022-12-13T03:31:19;46.83;;;18.00;;
2992;SDS011;1506;48.932;9.478;2022-12-13T03:33:46;44.93;;;17.53;;
2992;SDS011;1506;48.932;9.478;2022-12-13T03:36:14;37.93;;;18.63;;
2992;SDS011;1506;48.932;9.478;2022-12-13T03:38:42;52.60;;;21.60;;
2992;SDS011;1506;48.932;9.478;2022-12-13T03:41:14;43.83;;;20.00;;
2992;SDS011;1506;48.932;9.478;2022-12-13T03:43:44;49.53;;;20.37;;
2992;SDS011;1506;48.932;9.478;2022-12-13T03:46:11;51.93;;;18.70;;
2992;SDS011;1506;48.932;9.478;2022-12-13T03:48:39;43.80;;;16.43;;
2992;SDS011;1506;48.932;9.478;2022-12-13T03:51:06;39.00;;;16.73;;
2992;SDS011;1506;48.932;9.478;2022-12-13T03:53:34;42.07;;;14.70;;
2992;SDS011;1506;48.932;9.478;2022-12-13T03:56:02;46.87;;;17.77;;
2992;SDS011;1506;48.932;9.478;2022-12-13T03:58:30;39.27;;;15.77;;
2992;SDS011;1506;48.932;9.478;2022-12-13T04:01:06;45.03;;;17.33;;
2992;SDS011;1506;48.932;9.478;2022-12-13T04:03:35;37.53;;;16.93;;
2992;SDS011;1506;48.932;9.478;2022-12-13T04:06:03;40.80;;;17.90;;
2992;SDS011;1506;48.932;9.478;2022-12-13T04:08:31;45.73;;;17.57;;
2992;SDS011;1506;48.932;9.478;2022-12-13T04:10:59;37.63;;;16.37;;
2992;SDS011;1506;48.932;9.478;2022-12-13T04:13:47;31.43;;;15.73;;
2992;SDS011;1506;48.932;9.478;2022-12-13T04:16:14;46.10;;;17.20;;
2992;SDS011;1506;48.932;9.478;2022-12-13T04:18:42;31.73;;;15.77;;
2992;SDS011;1506;48.932;9.478;2022-12-13T04:21:09;32.92;;;14.93;;
2992;SDS011;1506;48.932;9.478;2022-12-13T04:23:36;36.50;;;17.07;;
2992;SDS011;1506;48.932;9.478;2022-12-13T04:26:04;34.50;;;14.87;;
2992;SDS011;1506;48.932;9.478;2022-12-13T04:28:31;48.63;;;16.23;;
2992;SDS011;1506;48.932;9.478;2022-12-13T04:30:59;30.40;;;16.13;;
2992;SDS011;1506;48.932;9.478;2022-12-13T04:33:26;33.78;;;16.05;;
2992;SDS011;1506;48.932;9.478;2022-12-13T04:35:53;32.00;;;14.30;;
2992;SDS011;1506;48.932;9.478;2022-12-13T04:38:21;49.67;;;20.33;;
2992;SDS011;1506;48.932;9.478;2022-12-13T04:40:48;36.97;;;19.30;;
2992;SDS011;1506;48.932;9.478;2022-12-13T04:43:16;30.13;;;14.90;;
2992;SDS011;1506;48.932;9.478;2022-12-13T04:45:43;39.77;;;18.17;;
2992;SDS011;1506;48.932;9.478;2022-12-13T04:48:10;33.73;;;14.97;;
2992;SDS011;1506;48.932;9.478;2022-12-13T04:50:56;35.10;;;17.90;;
2992;SDS011;1506;48.932;9.478;2022-12-13T04:53:27;31.83;;;14.20;;
2992;SDS011;1506;48.932;9.478;2022-12-13T04:55:54;29.40;;;14.70;;
2992;SDS011;1506;48.932;9.478;2022-12-13T04:58:22;29.43;;;17.07;;
2992;SDS011;1506;48.932;9.478;2022-12-13T05:00:50;36.57;;;15.83;;
2992;SDS011;1506;48.932;9.478;2022-12-13T05:03:17;33.23;;;16.53;;
2992;SDS011;1506;48.932;9.478;2022-12-13T05:05:44;27.87;;;15.47;;
2992;SDS011;1506;48.932;9.478;2022-12-13T05:08:12;26.53;;;15.60;;
2992;SDS011;1506;48.932;9.478;2022-12-13T05:10:39;42.63;;;15.77;;
2992;SDS011;1506;48.932;9.478;2022-12-13T05:13:07;29.87;;;15.30;;
2992;SDS011;1506;48.932;9.478;2022-12-13T05:15:34;25.27;;;14.40;;
2992;SDS011;1506;48.932;9.478;2022-12-13T05:18:02;33.87;;;16.90;;
2992;SDS011;1506;48.932;9.478;2022-12-13T05:20:36;36.55;;;16.48;;
2992;SDS011;1506;48.932;9.478;2022-12-13T05:23:04;38.33;;;15.63;;
2992;SDS011;1506;48.932;9.478;2022-12-13T05:25:32;33.47;;;15.97;;
2992;SDS011;1506;48.932;9.478;2022-12-13T05:28:02;32.70;;;14.60;;
2992;SDS011;1506;48.932;9.478;2022-12-13T05:30:50;34.42;;;14.48;;
2992;SDS011;1506;48.932;9.478;2022-12-13T05:33:19;34.17;;;14.00;;
2992;SDS011;1506;48.932;9.478;2022-12-13T05:35:47;30.67;;;16.07;;
2992;SDS011;1506;48.932;9.478;2022-12-13T05:38:15;27.40;;;13.33;;
2992;SDS011;1506;48.932;9.478;2022-12-13T05:40:43;42.27;;;17.97;;
2992;SDS011;1506;48.932;9.478;2022-12-13T05:43:10;34.80;;;17.70;;
2992;SDS011;1506;48.932;9.478;2022-12-13T05:45:47;38.03;;;14.73;;
2992;SDS011;1506;48.932;9.478;2022-12-13T05:48:14;33.47;;;14.67;;
2992;SDS011;1506;48.932;9.478;2022-12-13T05:50:50;33.93;;;16.20;;
2992;SDS011;1506;48.932;9.478;2022-12-13T05:53:37;35.67;;;15.83;;
2992;SDS011;1506;48.932;9.478;2022-12-13T05:56:06;40.97;;;15.70;;
2992;SDS011;1506;48.932;9.478;2022-12-13T05:58:35;38.20;;;16.48;;
2992;SDS011;1506;48.932;9.478;2022-12-13T06:01:05;29.27;;;13.07;;
2992;SDS011;1506;48.932;9.478;2022-12-13T06:03:33;33.10;;;13.63;;
2992;SDS011;1506;48.932;9.478;2022-12-13T06:06:02;36.23;;;16.77;;
2992;SDS011;1506;48.932;9.478;2022-12-13T06:08:30;28.77;;;13.25;;
2992;SDS011;1506;48.932;9.478;2022-12-13T06:10:59;36.53;;;17.20;;
2992;SDS011;1506;48.932;9.478;2022-12-13T06:13:38;41.80;;;17.03;;
2992;SDS011;1506;48.932;9.478;2022-12-13T06:16:09;42.97;;;16.90;;
2992;SDS011;1506;48.932;9.478;2022-12-13T06:18:48;35.17;;;16.70;;
2992;SDS011;1506;48.932;9.478;2022-12-13T06:21:26;47.73;;;19.00;;
2992;SDS011;1506;48.932;9.478;2022-12-13T06:24:08;34.67;;;17.00;;
2992;SDS011;1506;48.932;9.478;2022-12-13T06:26:36;33.10;;;13.83;;
2992;SDS011;1506;48.932;9.478;2022-12-13T06:29:03;42.33;;;16.10;;
2992;SDS011;1506;48.932;9.478;2022-12-13T06:31:31;30.57;;;14.80;;
2992;SDS011;1506;48.932;9.478;2022-12-13T06:34:04;38.05;;;17.05;;
2992;SDS011;1506;48.932;9.478;2022-12-13T06:36:40;54.47;;;21.08;;
2992;SDS011;1506;48.932;9.478;2022-12-13T06:39:08;41.05;;;17.55;;
2992;SDS011;1506;48.932;9.478;2022-12-13T06:41:35;41.50;;;17.77;;
2992;SDS011;1506;48.932;9.478;2022-12-13T06:44:03;41.70;;;17.00;;
2992;SDS011;1506;48.932;9.478;2022-12-13T06:46:31;43.22;;;16.35;;
2992;SDS011;1506;48.932;9.478;2022-12-13T06:48:58;32.58;;;16.73;;
2992;SDS011;1506;48.932;9.478;2022-12-13T06:51:26;51.13;;;17.40;;
2992;SDS011;1506;48.932;9.478;2022-12-13T06:53:58;37.65;;;16.15;;
2992;SDS011;1506;48.932;9.478;2022-12-13T06:56:27;38.23;;;18.63;;
2992;SDS011;1506;48.932;9.478;2022-12-13T06:58:56;45.65;;;19.45;;
2992;SDS011;1506;48.932;9.478;2022-12-13T07:01:27;38.58;;;18.38;;
2992;SDS011;1506;48.932;9.478;2022-12-13T07:04:04;43.85;;;19.60;;
2992;SDS011;1506;48.932;9.478;2022-12-13T07:06:51;58.53;;;19.00;;
2992;SDS011;1506;48.932;9.478;2022-12-13T07:09:19;41.08;;;16.92;;
2992;SDS011;1506;48.932;9.478;2022-12-13T07:11:46;43.85;;;16.73;;
2992;SDS011;1506;48.932;9.478;2022-12-13T07:14:17;39.33;;;18.83;;
2992;SDS011;1506;48.932;9.478;2022-12-13T07:16:45;34.15;;;15.43;;
2992;SDS011;1506;48.932;9.478;2022-12-13T07:19:12;33.78;;;15.02;;
2992;SDS011;1506;48.932;9.478;2022-12-13T07:21:50;39.55;;;15.82;;
2992;SDS011;1506;48.932;9.478;2022-12-13T07:24:17;30.83;;;16.08;;
2992;SDS011;1506;48.932;9.478;2022-12-13T07:26:45;34.15;;;15.55;;
2992;SDS011;1506;48.932;9.478;2022-12-13T07:29:12;36.13;;;16.98;;
2992;SDS011;1506;48.932;9.478;2022-12-13T07:31:48;32.80;;;15.90;;
2992;SDS011;1506;48.932;9.478;2022-12-13T07:34:15;30.00;;;14.27;;
2992;SDS011;1506;48.932;9.478;2022-12-13T07:36:43;44.50;;;18.02;;
2992;SDS011;1506;48.932;9.478;2022-12-13T07:39:10;44.67;;;18.83;;
2992;SDS011;1506;48.932;9.478;2022-12-13T07:41:37;36.00;;;15.23;;
2992;SDS011;1506;48.932;9.478;2022-12-13T07:44:05;33.08;;;15.18;;
2992;SDS011;1506;48.932;9.478;2022-12-13T07:46:33;32.93;;;13.90;;
2992;SDS011;1506;48.932;9.478;2022-12-13T07:49:01;37.67;;;14.17;;
2992;SDS011;1506;48.932;9.478;2022-12-13T07:51:29;45.77;;;16.40;;
2992;SDS011;1506;48.932;9.478;2022-12-13T07:53:58;37.60;;;17.63;;
2992;SDS011;1506;48.932;9.478;2022-12-13T07:56:31;43.00;;;13.70;;
2992;SDS011;1506;48.932;9.478;2022-12-13T07:58:59;33.33;;;13.80;;
2992;SDS011;1506;48.932;9.478;2022-12-13T08:01:29;32.27;;;15.77;;
2992;SDS011;1506;48.932;9.478;2022-12-13T08:04:00;35.37;;;16.23;;
2992;SDS011;1506;48.932;9.478;2022-12-13T08:06:28;46.40;;;16.80;;
2992;SDS011;1506;48.932;9.478;2022-12-13T08:08:59;32.20;;;14.93;;
2992;SDS011;1506;48.932;9.478;2022-12-13T08:11:27;40.97;;;13.70;;
2992;SDS011;1506;48.932;9.478;2022-12-13T08:13:54;30.13;;;15.50;;
2992;SDS011;1506;48.932;9.478;2022-12-13T08:16:21;31.57;;;16.03;;
2992;SDS011;1506;48.932;9.478;2022-12-13T08:18:57;41.77;;;18.07;;
2992;SDS011;1506;48.932;9.478;2022-12-13T08:21:28;36.83;;;15.73;;
2992;SDS011;1506;48.932;9.478;2022-12-13T08:24:25;28.73;;;14.47;;
2992;SDS011;1506;48.932;9.478;2022-12-13T08:26:54;33.30;;;14.47;;
2992;SDS011;1506;48.932;9.478;2022-12-13T08:29:27;32.33;;;15.30;;
2992;SDS011;1506;48.932;9.478;2022-12-13T08:32:18;29.83;;;15.50;;
2992;SDS011;1506;48.932;9.478;2022-12-13T08:34:45;24.70;;;12.20;;
2992;SDS011;1506;48.932;9.478;2022-12-13T08:37:13;30.20;;;14.27;;
2992;SDS011;1506;48.932;9.478;2022-12-13T08:39:40;40.63;;;14.63;;
2992;SDS011;1506;48.932;9.478;2022-12-13T08:42:11;34.57;;;15.60;;
2992;SDS011;1506;48.932;9.478;2022-12-13T08:44:46;26.97;;;12.87;;
2992;SDS011;1506;48.932;9.478;2022-12-13T08:47:16;23.67;;;12.63;;
2992;SDS011;1506;48.932;9.478;2022-12-13T08:49:49;33.63;;;16.10;;
2992;SDS011;1506;48.932;9.478;2022-12-13T08:52:16;22.63;;;13.13;;
2992;SDS011;1506;48.932;9.478;2022-12-13T08:54:44;20.63;;;13.03;;
2992;SDS011;1506;48.932;9.478;2022-12-13T08:57:12;28.70;;;12.20;;
2992;SDS011;1506;48.932;9.478;2022-12-13T08:59:39;15.63;;;9.60;;
2992;SDS011;1506;48.932;9.478;2022-12-13T09:02:10;21.53;;;10.97;;
2992;SDS011;1506;48.932;9.478;2022-12-13T09:04:38;18.93;;;10.40;;
2992;SDS011;1506;48.932;9.478;2022-12-13T09:07:06;16.17;;;9.43;;
2992;SDS011;1506;48.932;9.478;2022-12-13T09:09:34;18.67;;;9.40;;
2992;SDS011;1506;48.932;9.478;2022-12-13T09:12:03;20.63;;;9.97;;
2992;SDS011;1506;48.932;9.478;2022-12-13T09:14:51;22.30;;;11.83;;
2992;SDS011;1506;48.932;9.478;2022-12-13T09:17:28;22.20;;;12.97;;
2992;SDS011;1506;48.932;9.478;2022-12-13T09:20:03;12.17;;;7.70;;
2992;SDS011;1506;48.932;9.478;2022-12-13T09:22:53;18.83;;;9.50;;
2992;SDS011;1506;48.932;9.478;2022-12-13T09:25:27;7.17;;;5.87;;
2992;SDS011;1506;48.932;9.478;2022-12-13T09:28:03;11.47;;;4.80;;
2992;SDS011;1506;48.932;9.478;2022-12-13T09:30:35;14.53;;;7.10;;
2992;SDS011;1506;48.932;9.478;2022-12-13T09:33:02;16.07;;;9.20;;
2992;SDS011;1506;48.932;9.478;2022-12-13T09:35:50;13.63;;;6.87;;
2992;SDS011;1506;48.932;9.478;2022-12-13T09:38:18;9.23;;;6.37;;
2992;SDS011;1506;48.932;9.478;2022-12-13T09:40:46;15.97;;;8.83;;
2992;SDS011;1506;48.932;9.478;2022-12-13T09:43:17;12.93;;;8.43;;
2992;SDS011;1506;48.932;9.478;2022-12-13T09:46:03;17.27;;;8.90;;
2992;SDS011;1506;48.932;9.478;2022-12-13T09:48:47;13.73;;;7.83;;
2992;SDS011;1506;48.932;9.478;2022-12-13T09:51:15;20.83;;;10.30;;
2992;SDS011;1506;48.932;9.478;2022-12-13T09:53:55;19.13;;;9.43;;
2992;SDS011;1506;48.932;9.478;2022-12-13T09:56:23;7.17;;;6.50;;
2992;SDS011;1506;48.932;9.478;2022-12-13T09:58:51;9.00;;;6.80;;
2992;SDS011;1506;48.932;9.478;2022-12-13T10:01:20;12.20;;;6.27;;
2992;SDS011;1506;48.932;9.478;2022-12-13T10:03:53;13.63;;;10.00;;
2992;SDS011;1506;48.932;9.478;2022-12-13T10:06:22;19.10;;;9.60;;
2992;SDS011;1506;48.932;9.478;2022-12-13T10:08:55;15.23;;;9.23;;
2992;SDS011;1506;48.932;9.478;2022-12-13T10:11:25;14.67;;;9.33;;
2992;SDS011;1506;48.932;9.478;2022-12-13T10:14:15;16.67;;;9.10;;
2992;SDS011;1506;48.932;9.478;2022-12-13T10:17:13;11.70;;;6.30;;
2992;SDS011;1506;48.932;9.478;2022-12-13T10:19:45;13.27;;;8.50;;
2992;SDS011;1506;48.932;9.478;2022-12-13T10:22:18;16.57;;;9.50;;
2992;SDS011;1506;48.932;9.478;2022-12-13T10:27:27;15.30;;;7.70;;
2992;SDS011;1506;48.932;9.478;2022-12-13T10:32:33;12.73;;;7.17;;
2992;SDS011;1506;48.932;9.478;2022-12-13T10:37:56;13.27;;;6.27;;
2992;SDS011;1506;48.932;9.478;2022-12-13T10:40:35;8.53;;;5.50;;
2992;SDS011;1506;48.932;9.478;2022-12-13T10:43:06;8.90;;;5.97;;
2992;SDS011;1506;48.932;9.478;2022-12-13T10:46:03;19.30;;;8.77;;
2992;SDS011;1506;48.932;9.478;2022-12-13T10:48:50;13.73;;;7.87;;
2992;SDS011;1506;48.932;9.478;2022-12-13T10:51:19;8.40;;;7.20;;
2992;SDS011;1506;48.932;9.478;2022-12-13T10:53:47;5.80;;;4.87;;
2992;SDS011;1506;48.932;9.478;2022-12-13T10:56:18;20.30;;;9.07;;
2992;SDS011;1506;48.932;9.478;2022-12-13T10:59:07;8.00;;;6.80;;
2992;SDS011;1506;48.932;9.478;2022-12-13T11:01:56;16.20;;;7.60;;
2992;SDS011;1506;48.932;9.478;2022-12-13T11:06:58;14.03;;;5.93;;
2992;SDS011;1506;48.932;9.478;2022-12-13T11:09:47;15.60;;;8.40;;
2992;SDS011;1506;48.932;9.478;2022-12-13T11:12:19;8.77;;;7.43;;
2992;SDS011;1506;48.932;9.478;2022-12-13T11:17:26;7.67;;;6.37;;
2992;SDS011;1506;48.932;9.478;2022-12-13T11:19:55;14.63;;;8.90;;
2992;SDS011;1506;48.932;9.478;2022-12-13T11:22:27;16.30;;;9.03;;
2992;SDS011;1506;48.932;9.478;2022-12-13T11:25:05;11.83;;;7.43;;
2992;SDS011;1506;48.932;9.478;2022-12-13T11:27:48;15.30;;;9.93;;
2992;SDS011;1506;48.932;9.478;2022-12-13T11:39:20;7.73;;;6.97;;
2992;SDS011;1506;48.932;9.478;2022-12-13T11:45:11;12.93;;;9.07;;
2992;SDS011;1506;48.932;9.478;2022-12-13T11:47:52;11.33;;;7.43;;
2992;SDS011;1506;48.932;9.478;2022-12-13T11:50:34;14.90;;;9.57;;
2992;SDS011;1506;48.932;9.478;2022-12-13T11:58:29;17.50;;;9.30;;
2992;SDS011;1506;48.932;9.478;2022-12-13T12:01:46;11.77;;;8.00;;
2992;SDS011;1506;48.932;9.478;2022-12-13T12:09:59;10.07;;;7.63;;
2992;SDS011;1506;48.932;9.478;2022-12-13T12:12:54;15.10;;;7.23;;
2992;SDS011;1506;48.932;9.478;2022-12-13T12:15:39;15.20;;;8.50;;
2992;SDS011;1506;48.932;9.478;2022-12-13T12:18:20;18.70;;;8.50;;
2992;SDS011;1506;48.932;9.478;2022-12-13T12:20:52;11.20;;;7.20;;
2992;SDS011;1506;48.932;9.478;2022-12-13T12:26:55;11.93;;;6.73;;
2992;SDS011;1506;48.932;9.478;2022-12-13T12:33:23;10.63;;;6.50;;
2992;SDS011;1506;48.932;9.478;2022-12-13T12:44:10;13.20;;;7.80;;
2992;SDS011;1506;48.932;9.478;2022-12-13T12:58:29;11.53;;;8.07;;
2992;SDS011;1506;48.932;9.478;2022-12-13T13:03:49;12.10;;;8.60;;
2992;SDS011;1506;48.932;9.478;2022-12-13T13:06:40;3.23;;;3.13;;
2992;SDS011;1506;48.932;9.478;2022-12-13T13:09:15;5.00;;;4.43;;
2992;SDS011;1506;48.932;9.478;2022-12-13T13:11:50;14.00;;;8.20;;
2992;SDS011;1506;48.932;9.478;2022-12-13T13:14:33;14.83;;;9.10;;
2992;SDS011;1506;48.932;9.478;2022-12-13T13:19:52;12.60;;;6.17;;
2992;SDS011;1506;48.932;9.478;2022-12-13T13:22:36;19.50;;;10.10;;
2992;SDS011;1506;48.932;9.478;2022-12-13T13:27:47;12.80;;;7.73;;
2992;SDS011;1506;48.932;9.478;2022-12-13T13:30:23;7.03;;;6.27;;
2992;SDS011;1506;48.932;9.478;2022-12-13T13:32:51;9.60;;;6.67;;
2992;SDS011;1506;48.932;9.478;2022-12-13T13:37:58;18.40;;;8.30;;
2992;SDS011;1506;48.932;9.478;2022-12-13T13:40:35;15.40;;;7.07;;
2992;SDS011;1506;48.932;9.478;2022-12-13T13:53:56;12.77;;;8.67;;
2992;SDS011;1506;48.932;9.478;2022-12-13T13:57:05;14.07;;;8.57;;
2992;SDS011;1506;48.932;9.478;2022-12-13T14:00:17;9.07;;;7.63;;
2992;SDS011;1506;48.932;9.478;2022-12-13T14:29:38;17.07;;;9.40;;
2992;SDS011;1506;48.932;9.478;2022-12-13T14:32:24;15.63;;;8.67;;
2992;SDS011;1506;48.932;9.478;2022-12-13T14:34:58;20.60;;;11.40;;
2992;SDS011;1506;48.932;9.478;2022-12-13T14:37:53;18.63;;;10.63;;
2992;SDS011;1506;48.932;9.478;2022-12-13T14:43:00;21.33;;;10.33;;
2992;SDS011;1506;48.932;9.478;2022-12-13T14:45:29;21.07;;;10.63;;
2992;SDS011;1506;48.932;9.478;2022-12-13T14:47:59;21.70;;;10.97;;
2992;SDS011;1506;48.932;9.478;2022-12-13T14:50:32;29.33;;;12.20;;
2992;SDS011;1506;48.932;9.478;2022-12-13T14:53:00;20.93;;;11.00;;
2992;SDS011;1506;48.932;9.478;2022-12-13T14:55:29;21.27;;;9.83;;
2992;SDS011;1506;48.932;9.478;2022-12-13T14:57:59;20.93;;;11.23;;
2992;SDS011;1506;48.932;9.478;2022-12-13T15:00:32;20.27;;;12.47;;
2992;SDS011;1506;48.932;9.478;2022-12-13T15:03:02;13.90;;;10.43;;
2992;SDS011;1506;48.932;9.478;2022-12-13T15:05:31;21.13;;;11.00;;
2992;SDS011;1506;48.932;9.478;2022-12-13T15:08:06;17.40;;;10.90;;
2992;SDS011;1506;48.932;9.478;2022-12-13T15:10:40;20.97;;;11.00;;
2992;SDS011;1506;48.932;9.478;2022-12-13T15:13:24;21.00;;;11.33;;
2992;SDS011;1506;48.932;9.478;2022-12-13T15:16:01;26.00;;;10.93;;
2992;SDS011;1506;48.932;9.478;2022-12-13T15:18:39;14.30;;;8.33;;
2992;SDS011;1506;48.932;9.478;2022-12-13T15:21:17;22.47;;;10.10;;
2992;SDS011;1506;48.932;9.478;2022-12-13T15:23:51;26.73;;;12.10;;
2992;SDS011;1506;48.932;9.478;2022-12-13T15:26:27;28.53;;;13.00;;
2992;SDS011;1506;48.932;9.478;2022-12-13T15:28:56;14.23;;;9.07;;
2992;SDS011;1506;48.932;9.478;2022-12-13T15:31:26;19.93;;;9.77;;
2992;SDS011;1506;48.932;9.478;2022-12-13T15:33:54;25.10;;;12.80;;
2992;SDS011;1506;48.932;9.478;2022-12-13T15:37:03;21.90;;;11.67;;
2992;SDS011;1506;48.932;9.478;2022-12-13T15:39:55;26.73;;;12.43;;
2992;SDS011;1506;48.932;9.478;2022-12-13T15:42:34;23.23;;;10.43;;
2992;SDS011;1506;48.932;9.478;2022-12-13T15:45:16;21.83;;;9.17;;
2992;SDS011;1506;48.932;9.478;2022-12-13T15:47:51;20.50;;;10.10;;
2992;SDS011;1506;48.932;9.478;2022-12-13T15:50:36;23.90;;;9.30;;
2992;SDS011;1506;48.932;9.478;2022-12-13T15:53:30;22.60;;;10.97;;
2992;SDS011;1506;48.932;9.478;2022-12-13T15:55:59;19.53;;;11.20;;
2992;SDS011;1506;48.932;9.478;2022-12-13T15:58:35;24.70;;;12.27;;
2992;SDS011;1506;48.932;9.478;2022-12-13T16:01:03;28.60;;;11.40;;
2992;SDS011;1506;48.932;9.478;2022-12-13T16:03:41;21.50;;;11.30;;
2992;SDS011;1506;48.932;9.478;2022-12-13T16:06:15;25.50;;;9.67;;
2992;SDS011;1506;48.932;9.478;2022-12-13T16:08:43;20.93;;;11.10;;
2992;SDS011;1506;48.932;9.478;2022-12-13T16:11:14;16.80;;;10.90;;
2992;SDS011;1506;48.932;9.478;2022-12-13T16:14:21;17.77;;;10.83;;
2992;SDS011;1506;48.932;9.478;2022-12-13T16:16:52;13.80;;;8.50;;
2992;SDS011;1506;48.932;9.478;2022-12-13T16:19:20;16.67;;;9.17;;
2992;SDS011;1506;48.932;9.478;2022-12-13T16:21:48;21.77;;;8.83;;
2992;SDS011;1506;48.932;9.478;2022-12-13T16:24:15;21.87;;;9.60;;
2992;SDS011;1506;48.932;9.478;2022-12-13T16:26:46;23.63;;;10.73;;
2992;SDS011;1506;48.932;9.478;2022-12-13T16:29:15;24.40;;;10.13;;
2992;SDS011;1506;48.932;9.478;2022-12-13T16:31:44;23.07;;;10.60;;
2992;SDS011;1506;48.932;9.478;2022-12-13T16:34:12;19.90;;;10.30;;
2992;SDS011;1506;48.932;9.478;2022-12-13T16:36:43;18.83;;;9.70;;
2992;SDS011;1506;48.932;9.478;2022-12-13T16:39:13;13.07;;;10.00;;
2992;SDS011;1506;48.932;9.478;2022-12-13T16:41:41;19.33;;;10.43;;
2992;SDS011;1506;48.932;9.478;2022-12-13T16:44:15;18.33;;;9.87;;
2992;SDS011;1506;48.932;9.478;2022-12-13T16:46:47;19.17;;;9.33;;
2992;SDS011;1506;48.932;9.478;2022-12-13T16:49:34;19.20;;;9.80;;
2992;SDS011;1506;48.932;9.478;2022-12-13T16:52:02;13.53;;;9.60;;
2992;SDS011;1506;48.932;9.478;2022-12-13T16:54:32;22.00;;;10.17;;
2992;SDS011;1506;48.932;9.478;2022-12-13T16:57:00;18.53;;;10.30;;
2992;SDS011;1506;48.932;9.478;2022-12-13T16:59:28;15.30;;;8.90;;
2992;SDS011;1506;48.932;9.478;2022-12-13T17:01:55;11.83;;;9.80;;
2992;SDS011;1506;48.932;9.478;2022-12-13T17:04:23;26.30;;;7.87;;
2992;SDS011;1506;48.932;9.478;2022-12-13T17:06:52;19.47;;;9.13;;
2992;SDS011;1506;48.932;9.478;2022-12-13T17:09:21;17.23;;;9.97;;
2992;SDS011;1506;48.932;9.478;2022-12-13T17:11:50;16.97;;;9.67;;
2992;SDS011;1506;48.932;9.478;2022-12-13T17:14:17;22.80;;;8.80;;
2992;SDS011;1506;48.932;9.478;2022-12-13T17:16:45;19.73;;;10.23;;
2992;SDS011;1506;48.932;9.478;2022-12-13T17:19:13;19.57;;;10.30;;
2992;SDS011;1506;48.932;9.478;2022-12-13T17:21:41;14.40;;;8.63;;
2992;SDS011;1506;48.932;9.478;2022-12-13T17:24:08;13.90;;;7.80;;
2992;SDS011;1506;48.932;9.478;2022-12-13T17:26:35;17.90;;;10.80;;
2992;SDS011;1506;48.932;9.478;2022-12-13T17:29:03;11.27;;;8.47;;
2992;SDS011;1506;48.932;9.478;2022-12-13T17:31:30;12.43;;;8.50;;
2992;SDS011;1506;48.932;9.478;2022-12-13T17:34:01;23.27;;;10.73;;
2992;SDS011;1506;48.932;9.478;2022-12-13T17:36:29;20.43;;;10.13;;
2992;SDS011;1506;48.932;9.478;2022-12-13T17:38:57;25.37;;;13.30;;
2992;SDS011;1506;48.932;9.478;2022-12-13T17:41:25;11.10;;;7.90;;
2992;SDS011;1506;48.932;9.478;2022-12-13T17:43:52;16.87;;;8.70;;
2992;SDS011;1506;48.932;9.478;2022-12-13T17:46:25;12.17;;;8.23;;
2992;SDS011;1506;48.932;9.478;2022-12-13T17:48:52;14.97;;;6.50;;
2992;SDS011;1506;48.932;9.478;2022-12-13T17:51:20;16.00;;;8.03;;
2992;SDS011;1506;48.932;9.478;2022-12-13T17:53:47;10.57;;;6.60;;
2992;SDS011;1506;48.932;9.478;2022-12-13T17:56:15;14.33;;;8.73;;